Terminal Aerodrome Forecast
Issued by NWS Wilmington, OH

Home | Current Version | Previous Version | Text Only | Print | Product List | Glossary On
Versions: 1 2 3 4 5 6 7 8 9 10 11 12 13 14 15 16 17 18 19 20 21 22 23 24
356
FTUS41 KILN 282105 AAB
TAFCMH
TAF AMD
KCMH 282105Z 2821/2918 36007KT P6SM VCTS BKN023CB
     FM290000 35004KT P6SM BKN025
     FM290600 34004KT 5SM BR OVC007
     FM290900 34003KT 2SM BR OVC003
     FM291300 32005KT 5SM BR OVC008
     FM291600 28006KT P6SM OVC015=

USA.gov is the U.S. government's official web portal to all federal, state and local government web resources and services.